Terminal Aerodrome Forecast
Issued by NWS

Home | Current Version | Previous Version | Text Only | Print | Product List | Glossary On
Versions: 1 2 3 4 5 6 7 8 9 10 11 12 13
000
FTUS45 KBOU 101134
TAFAPA
TAF
KAPA 101134Z 1012/1112 17006KT P6SM SKC
     FM101700 VRB05KT P6SM FEW220
     FM101900 06006KT P6SM FEW220
     FM102300 14009KT P6SM SCT220
     FM110300 18006KT P6SM FEW220=

USA.gov is the U.S. government's official web portal to all federal, state and local government web resources and services.